Time;durP1;ratioP1;P1;durP2;ratioP2;P2;SDS_P1;SDS_P2;PMS_P1;PMS_P2;Temp;Humidity;BMP_temperature;BMP_pressure;BME280_temperature;BME280_humidity;BME280_pressure;Samples;Min_cycle;Max_cycle;Signal;HPM_P1;HPM_P2
2023/06/05 00:00:42;;;;;;;7.28;4.45;;;;;;;;;;5067446;28;20080;-73
2023/06/05 00:03:08;;;;;;;10.05;4.75;;;;;;;;;;5068368;28;20052;-74
2023/06/05 00:05:34;;;;;;;9.18;4.50;;;;;;;;;;5068618;28;20024;-74
2023/06/05 00:08:00;;;;;;;8.35;4.80;;;;;;;;;;5063714;28;20033;-72
2023/06/05 00:10:27;;;;;;;7.72;4.45;;;;;;;;;;5050230;28;20372;-74
2023/06/05 00:12:53;;;;;;;7.57;4.90;;;;;;;;;;5068354;28;20033;-74
2023/06/05 00:15:19;;;;;;;10.40;4.88;;;;;;;;;;5068385;28;20492;-74
2023/06/05 00:17:45;;;;;;;7.70;4.18;;;;;;;;;;5050211;28;20533;-74
2023/06/05 00:20:11;;;;;;;7.72;4.20;;;;;;;;;;5063084;28;20021;-73
2023/06/05 00:22:38;;;;;;;8.48;3.70;;;;;;;;;;5060375;28;20032;-74
2023/06/05 00:25:05;;;;;;;10.05;4.65;;;;;;;;;;5067889;28;20020;-73
2023/06/05 00:27:31;;;;;;;9.98;4.78;;;;;;;;;;5056923;28;20063;-73
2023/06/05 00:29:57;;;;;;;8.10;5.15;;;;;;;;;;5048058;28;20024;-74
2023/06/05 00:32:23;;;;;;;11.02;5.70;;;;;;;;;;5056651;28;20041;-73
2023/06/05 00:34:50;;;;;;;10.43;5.63;;;;;;;;;;5066394;28;20059;-74
2023/06/05 00:37:16;;;;;;;9.80;5.10;;;;;;;;;;5067438;28;20494;-72
2023/06/05 00:39:42;;;;;;;16.15;6.10;;;;;;;;;;5062926;28;20028;-73
2023/06/05 00:42:08;;;;;;;9.38;5.50;;;;;;;;;;5060333;28;20033;-74
2023/06/05 00:44:35;;;;;;;8.27;4.60;;;;;;;;;;5048672;28;20025;-74
2023/06/05 00:47:01;;;;;;;9.20;6.03;;;;;;;;;;5046824;28;20037;-74
2023/06/05 00:49:27;;;;;;;9.27;5.43;;;;;;;;;;5049438;28;20021;-74
2023/06/05 00:51:54;;;;;;;11.38;5.90;;;;;;;;;;5036101;28;20154;-73
2023/06/05 00:54:22;;;;;;;9.23;5.88;;;;;;;;;;5047520;28;20109;-74
2023/06/05 00:56:48;;;;;;;6.88;4.38;;;;;;;;;;5032530;28;20037;-74
2023/06/05 00:59:14;;;;;;;8.68;5.28;;;;;;;;;;5058005;28;20127;-73
2023/06/05 01:01:42;;;;;;;10.95;5.43;;;;;;;;;;5063824;28;20028;-74
2023/06/05 01:04:09;;;;;;;11.20;6.13;;;;;;;;;;5056771;28;20029;-74
2023/06/05 01:06:35;;;;;;;10.25;6.10;;;;;;;;;;5043362;28;20030;-75
2023/06/05 01:09:02;;;;;;;10.60;5.68;;;;;;;;;;5056459;28;20454;-73
2023/06/05 01:11:52;;;;;;;10.90;6.18;;;;;;;;;;5050752;28;20448;-73
2023/06/05 01:14:22;;;;;;;8.60;5.20;;;;;;;;;;5051702;28;20025;-74
2023/06/05 01:16:56;;;;;;;9.02;5.75;;;;;;;;;;5067811;28;20028;-75
2023/06/05 01:19:24;;;;;;;11.10;6.38;;;;;;;;;;5054352;28;20017;-72
2023/06/05 01:21:50;;;;;;;11.73;7.47;;;;;;;;;;5067555;28;20032;-74
2023/06/05 01:24:17;;;;;;;11.77;5.72;;;;;;;;;;5054120;28;20047;-74
2023/06/05 01:27:02;;;;;;;9.30;6.78;;;;;;;;;;5063105;28;20028;-74
2023/06/05 01:29:38;;;;;;;9.40;4.90;;;;;;;;;;5061478;28;20421;-74
2023/06/05 01:32:12;;;;;;;10.02;5.95;;;;;;;;;;5041881;28;20033;-75
2023/06/05 01:34:38;;;;;;;10.80;6.30;;;;;;;;;;5061333;28;20100;-74
2023/06/05 01:37:08;;;;;;;10.80;6.85;;;;;;;;;;5057169;28;20043;-74
2023/06/05 01:39:34;;;;;;;8.20;5.07;;;;;;;;;;5069134;28;20056;-75
2023/06/05 01:42:01;;;;;;;12.25;7.38;;;;;;;;;;5065974;28;20074;-73
2023/06/05 01:44:27;;;;;;;10.27;6.70;;;;;;;;;;5049644;28;20029;-74
2023/06/05 01:46:53;;;;;;;9.18;7.10;;;;;;;;;;5061432;28;20438;-73
2023/06/05 01:49:21;;;;;;;10.05;6.95;;;;;;;;;;5054330;28;20036;-73
2023/06/05 01:51:47;;;;;;;10.02;7.20;;;;;;;;;;5071368;28;20029;-73
2023/06/05 01:54:15;;;;;;;11.35;6.28;;;;;;;;;;5070612;28;20103;-74
2023/06/05 01:56:43;;;;;;;9.15;7.30;;;;;;;;;;5061087;28;20056;-75
2023/06/05 01:59:09;;;;;;;10.18;6.68;;;;;;;;;;5063940;28;20057;-73
2023/06/05 02:01:35;;;;;;;13.63;8.00;;;;;;;;;;5063585;28;20036;-74
2023/06/05 02:04:05;;;;;;;6.60;4.47;;;;;;;;;;5069791;28;20032;-73
2023/06/05 02:06:44;;;;;;;13.73;7.97;;;;;;;;;;5052649;28;20115;-74
2023/06/05 02:09:10;;;;;;;12.63;8.18;;;;;;;;;;5056821;28;20052;-74
2023/06/05 02:11:42;;;;;;;10.20;5.97;;;;;;;;;;5057333;28;20083;-75
2023/06/05 02:14:12;;;;;;;8.93;5.97;;;;;;;;;;5032833;28;20477;-74
2023/06/05 02:16:38;;;;;;;12.68;7.43;;;;;;;;;;5063789;28;20021;-72
2023/06/05 02:19:04;;;;;;;12.45;7.53;;;;;;;;;;5053025;28;20055;-74
2023/06/05 02:21:32;;;;;;;11.75;8.45;;;;;;;;;;5049655;28;20032;-74
2023/06/05 02:23:58;;;;;;;12.20;8.95;;;;;;;;;;5059164;28;20078;-75
2023/06/05 02:26:30;;;;;;;10.30;7.82;;;;;;;;;;5055300;28;20025;-75
2023/06/05 02:28:57;;;;;;;12.65;9.10;;;;;;;;;;5041973;28;20082;-74
2023/06/05 02:31:28;;;;;;;14.38;7.93;;;;;;;;;;5070146;28;20039;-74
2023/06/05 02:33:55;;;;;;;12.75;8.27;;;;;;;;;;5059790;28;20128;-73
2023/06/05 02:36:22;;;;;;;11.00;8.35;;;;;;;;;;5053830;28;20028;-74
2023/06/05 02:38:49;;;;;;;15.00;9.40;;;;;;;;;;5070203;28;20056;-73
2023/06/05 02:41:16;;;;;;;14.88;8.57;;;;;;;;;;5056532;28;20021;-74
2023/06/05 02:43:43;;;;;;;12.60;8.45;;;;;;;;;;5059476;28;20402;-74
2023/06/05 02:46:10;;;;;;;10.85;7.65;;;;;;;;;;5066950;28;20020;-73
2023/06/05 02:48:36;;;;;;;9.73;7.00;;;;;;;;;;5051092;28;20032;-74
2023/06/05 02:51:03;;;;;;;15.30;9.57;;;;;;;;;;5061646;28;20457;-73
2023/06/05 02:53:29;;;;;;;10.75;8.30;;;;;;;;;;5049811;28;20068;-74
2023/06/05 02:55:56;;;;;;;15.68;9.93;;;;;;;;;;5062185;28;20733;-74
2023/06/05 02:58:22;;;;;;;11.52;8.70;;;;;;;;;;5070027;28;20021;-74
2023/06/05 03:00:50;;;;;;;14.02;8.63;;;;;;;;;;5065231;28;20388;-73
2023/06/05 03:03:16;;;;;;;14.93;10.43;;;;;;;;;;5069687;28;20024;-74
2023/06/05 03:05:44;;;;;;;11.93;7.63;;;;;;;;;;5053864;28;20020;-74
2023/06/05 03:08:10;;;;;;;11.88;7.82;;;;;;;;;;5051460;28;20074;-74
2023/06/05 03:10:36;;;;;;;14.07;9.30;;;;;;;;;;5069397;28;20340;-74
2023/06/05 03:13:02;;;;;;;11.95;8.68;;;;;;;;;;5069226;28;20071;-73
2023/06/05 03:15:29;;;;;;;12.68;7.18;;;;;;;;;;5051622;28;20954;-74
2023/06/05 03:17:54;;;;;;;15.63;11.98;;;;;;;;;;5068931;28;20033;-73
2023/06/05 03:20:21;;;;;;;12.85;8.45;;;;;;;;;;5052366;28;20040;-73
2023/06/05 03:22:48;;;;;;;14.15;8.80;;;;;;;;;;5052138;28;20073;-73
2023/06/05 03:25:14;;;;;;;12.55;8.23;;;;;;;;;;5068760;28;20028;-74
2023/06/05 03:27:41;;;;;;;15.80;9.70;;;;;;;;;;5059962;28;20109;-74
2023/06/05 03:30:08;;;;;;;16.98;10.88;;;;;;;;;;5047938;28;20036;-73
2023/06/05 03:32:34;;;;;;;14.45;10.07;;;;;;;;;;5058998;28;20082;-74
2023/06/05 03:35:00;;;;;;;16.58;10.23;;;;;;;;;;5050672;28;20031;-74
2023/06/05 03:37:27;;;;;;;16.60;10.98;;;;;;;;;;5059723;28;20471;-73
2023/06/05 03:39:54;;;;;;;17.52;11.20;;;;;;;;;;5048714;28;20025;-73
2023/06/05 03:42:20;;;;;;;15.85;10.43;;;;;;;;;;5047574;28;20028;-73
2023/06/05 03:44:46;;;;;;;16.95;10.25;;;;;;;;;;5049341;28;20028;-73
2023/06/05 03:47:14;;;;;;;14.98;9.77;;;;;;;;;;5048535;28;20025;-73
2023/06/05 03:49:45;;;;;;;17.70;11.88;;;;;;;;;;5056186;28;20103;-74
2023/06/05 03:52:11;;;;;;;15.82;10.30;;;;;;;;;;5057555;28;20037;-73
2023/06/05 03:54:38;;;;;;;9.43;6.32;;;;;;;;;;5065948;28;20032;-72
2023/06/05 03:57:04;;;;;;;15.38;9.43;;;;;;;;;;5057829;28;20032;-73
2023/06/05 03:59:30;;;;;;;17.17;10.30;;;;;;;;;;5065970;28;20044;-74
2023/06/05 04:01:56;;;;;;;14.90;9.40;;;;;;;;;;5049664;28;20028;-74
2023/06/05 04:04:22;;;;;;;13.27;10.02;;;;;;;;;;5046766;28;20047;-73
2023/06/05 04:06:49;;;;;;;13.13;8.88;;;;;;;;;;5047426;28;20861;-74
2023/06/05 04:09:15;;;;;;;16.60;12.80;;;;;;;;;;5066290;28;20024;-73
2023/06/05 04:11:42;;;;;;;15.30;10.35;;;;;;;;;;5068621;28;20033;-73
2023/06/05 04:14:09;;;;;;;17.17;12.15;;;;;;;;;;5068641;28;20053;-74
2023/06/05 04:16:38;;;;;;;12.90;7.25;;;;;;;;;;5057851;28;20021;-73
2023/06/05 04:19:06;;;;;;;16.43;10.47;;;;;;;;;;5048855;28;20391;-74
2023/06/05 04:21:33;;;;;;;13.18;7.68;;;;;;;;;;5051383;28;20047;-74
2023/06/05 04:23:59;;;;;;;15.02;9.90;;;;;;;;;;5068457;28;20028;-73
2023/06/05 04:26:26;;;;;;;15.10;8.15;;;;;;;;;;5066727;28;20040;-73
2023/06/05 04:28:52;;;;;;;15.18;10.05;;;;;;;;;;5065469;28;20032;-74
2023/06/05 04:31:18;;;;;;;17.40;10.70;;;;;;;;;;5067130;28;20067;-74
2023/06/05 04:33:45;;;;;;;11.77;7.07;;;;;;;;;;5030564;28;20060;-74
2023/06/05 04:36:11;;;;;;;13.30;7.82;;;;;;;;;;5061619;28;20023;-74
2023/06/05 04:38:38;;;;;;;11.73;7.40;;;;;;;;;;5054730;28;20047;-73
2023/06/05 04:41:04;;;;;;;13.35;8.43;;;;;;;;;;5068510;28;20035;-74
2023/06/05 04:43:31;;;;;;;13.10;7.15;;;;;;;;;;5068595;28;20025;-74
2023/06/05 04:45:57;;;;;;;7.70;4.22;;;;;;;;;;5050038;28;20029;-73
2023/06/05 04:48:23;;;;;;;11.75;7.57;;;;;;;;;;5043823;28;20646;-73
2023/06/05 04:50:49;;;;;;;12.60;9.40;;;;;;;;;;5060532;28;20037;-73
2023/06/05 04:53:16;;;;;;;7.57;3.70;;;;;;;;;;5068241;28;20040;-74
2023/06/05 04:55:44;;;;;;;9.93;6.43;;;;;;;;;;5068400;28;20487;-73
2023/06/05 04:58:10;;;;;;;17.30;10.48;;;;;;;;;;5066686;28;20048;-74
2023/06/05 05:00:36;;;;;;;13.98;6.75;;;;;;;;;;5062537;28;20049;-74
2023/06/05 05:03:03;;;;;;;14.98;10.10;;;;;;;;;;5063247;28;20547;-73
2023/06/05 05:05:30;;;;;;;12.93;8.10;;;;;;;;;;5059245;28;20144;-75
2023/06/05 05:07:56;;;;;;;11.95;8.05;;;;;;;;;;5047658;28;20264;-74
2023/06/05 05:10:22;;;;;;;18.85;9.20;;;;;;;;;;5048291;28;20032;-73
2023/06/05 05:12:48;;;;;;;17.35;9.63;;;;;;;;;;5064111;28;20036;-73
2023/06/05 05:15:14;;;;;;;18.50;10.82;;;;;;;;;;5052260;28;20029;-74
2023/06/05 05:17:40;;;;;;;12.45;7.20;;;;;;;;;;5067540;28;20020;-72
2023/06/05 05:20:07;;;;;;;9.82;4.95;;;;;;;;;;5062469;28;20108;-73
2023/06/05 05:22:33;;;;;;;14.05;8.55;;;;;;;;;;5068077;28;20032;-74
2023/06/05 05:24:59;;;;;;;13.23;6.03;;;;;;;;;;5071190;28;20024;-74
2023/06/05 05:27:26;;;;;;;13.73;9.55;;;;;;;;;;5071783;28;20099;-73
2023/06/05 05:29:52;;;;;;;13.43;7.72;;;;;;;;;;5070644;28;20024;-78
2023/06/05 05:32:18;;;;;;;13.18;8.35;;;;;;;;;;5053509;28;20040;-75
2023/06/05 05:34:44;;;;;;;12.98;7.55;;;;;;;;;;5062525;28;20021;-73
2023/06/05 05:37:10;;;;;;;18.10;9.82;;;;;;;;;;5064076;28;20028;-74
2023/06/05 05:39:36;;;;;;;10.32;6.15;;;;;;;;;;5061024;28;20033;-74
2023/06/05 05:42:02;;;;;;;14.52;8.75;;;;;;;;;;5067053;28;20028;-73
2023/06/05 05:44:29;;;;;;;15.27;7.90;;;;;;;;;;5062067;28;20090;-76
2023/06/05 05:46:55;;;;;;;10.07;6.22;;;;;;;;;;5053951;28;20021;-75
2023/06/05 05:49:21;;;;;;;17.17;10.40;;;;;;;;;;5062252;28;20021;-75
2023/06/05 05:51:47;;;;;;;10.32;6.82;;;;;;;;;;5063510;28;20407;-75
2023/06/05 05:54:13;;;;;;;13.85;8.27;;;;;;;;;;5064603;28;20499;-75
2023/06/05 05:56:39;;;;;;;11.82;7.07;;;;;;;;;;5058255;28;20394;-75
2023/06/05 05:59:05;;;;;;;9.55;5.35;;;;;;;;;;5056266;28;20122;-75
2023/06/05 06:01:32;;;;;;;12.25;6.07;;;;;;;;;;5056119;28;20033;-75
2023/06/05 06:03:58;;;;;;;10.63;7.28;;;;;;;;;;5049601;28;20032;-75
2023/06/05 06:06:24;;;;;;;15.75;9.02;;;;;;;;;;5058147;28;20035;-75
2023/06/05 06:08:51;;;;;;;17.13;9.90;;;;;;;;;;5062925;28;20113;-74
2023/06/05 06:11:17;;;;;;;11.15;5.20;;;;;;;;;;5070326;28;20095;-75
2023/06/05 06:13:44;;;;;;;14.40;8.20;;;;;;;;;;5069568;28;20545;-75
2023/06/05 06:16:10;;;;;;;8.18;4.60;;;;;;;;;;5069874;28;20489;-74
2023/06/05 06:18:36;;;;;;;9.32;4.38;;;;;;;;;;5051564;28;20035;-75
2023/06/05 06:21:04;;;;;;;13.77;6.72;;;;;;;;;;5065158;28;20021;-74
2023/06/05 06:23:30;;;;;;;10.75;4.68;;;;;;;;;;5063836;28;20382;-75
2023/06/05 06:25:56;;;;;;;8.48;3.65;;;;;;;;;;5051414;28;20028;-75
2023/06/05 06:28:23;;;;;;;12.23;7.75;;;;;;;;;;5055872;28;20530;-74
2023/06/05 06:30:49;;;;;;;12.43;6.47;;;;;;;;;;5057551;28;20083;-74
2023/06/05 06:33:16;;;;;;;13.38;6.50;;;;;;;;;;5061082;28;20041;-75
2023/06/05 06:35:43;;;;;;;11.27;7.53;;;;;;;;;;5050124;28;20013;-75
2023/06/05 06:38:09;;;;;;;9.98;6.72;;;;;;;;;;5050368;28;20844;-74
2023/06/05 06:40:35;;;;;;;9.00;4.30;;;;;;;;;;5049859;28;20025;-76
2023/06/05 06:43:01;;;;;;;12.15;7.43;;;;;;;;;;5064273;28;20051;-74
2023/06/05 06:45:27;;;;;;;9.90;4.97;;;;;;;;;;5069606;28;20382;-76
2023/06/05 06:47:53;;;;;;;10.52;7.38;;;;;;;;;;5069409;28;20467;-75
2023/06/05 06:50:19;;;;;;;12.35;6.60;;;;;;;;;;5064586;28;20040;-76
2023/06/05 06:52:45;;;;;;;13.20;7.47;;;;;;;;;;5065632;28;20121;-75
2023/06/05 06:55:11;;;;;;;10.30;5.90;;;;;;;;;;5060002;28;20024;-75
2023/06/05 06:57:38;;;;;;;11.52;6.57;;;;;;;;;;5047604;28;20447;-75
2023/06/05 07:00:08;;;;;;;8.77;3.90;;;;;;;;;;5068226;28;20170;-75
2023/06/05 07:02:34;;;;;;;13.07;5.72;;;;;;;;;;5066396;28;20108;-74
2023/06/05 07:05:00;;;;;;;7.00;3.83;;;;;;;;;;5041740;28;20067;-76
2023/06/05 07:07:27;;;;;;;11.43;6.10;;;;;;;;;;5062845;28;20025;-75
2023/06/05 07:09:54;;;;;;;11.48;5.28;;;;;;;;;;5050951;28;20025;-73
2023/06/05 07:12:22;;;;;;;8.73;4.97;;;;;;;;;;5052849;28;20133;-75
2023/06/05 07:14:48;;;;;;;7.80;5.10;;;;;;;;;;5068972;28;20024;-74
2023/06/05 07:17:14;;;;;;;7.97;4.53;;;;;;;;;;5069608;28;20020;-74
2023/06/05 07:19:40;;;;;;;14.70;6.88;;;;;;;;;;5069297;28;20074;-74
2023/06/05 07:22:06;;;;;;;8.60;5.28;;;;;;;;;;5055900;28;20109;-75
2023/06/05 07:24:41;;;;;;;7.95;5.40;;;;;;;;;;5067527;28;20107;-73
2023/06/05 07:27:08;;;;;;;7.68;4.30;;;;;;;;;;5047708;28;20043;-75
2023/06/05 07:29:34;;;;;;;10.85;5.45;;;;;;;;;;5049258;28;20028;-75
2023/06/05 07:32:02;;;;;;;9.52;5.13;;;;;;;;;;5048829;28;20025;-74
2023/06/05 07:34:28;;;;;;;10.82;4.25;;;;;;;;;;5049576;28;20031;-75
2023/06/05 07:36:56;;;;;;;8.23;3.92;;;;;;;;;;5068112;28;20032;-74
2023/06/05 07:39:22;;;;;;;12.30;6.95;;;;;;;;;;5069768;28;20029;-73
2023/06/05 07:41:49;;;;;;;12.20;5.30;;;;;;;;;;5056607;28;20051;-74
2023/06/05 07:44:15;;;;;;;6.57;4.38;;;;;;;;;;5070794;28;20032;-74
2023/06/05 07:46:42;;;;;;;8.95;4.70;;;;;;;;;;5065279;28;20104;-75
2023/06/05 07:49:09;;;;;;;11.43;4.53;;;;;;;;;;5061939;28;20078;-75
2023/06/05 07:51:37;;;;;;;8.20;3.53;;;;;;;;;;5063808;28;20032;-75
2023/06/05 07:54:06;;;;;;;6.88;3.85;;;;;;;;;;5062335;28;20485;-75
2023/06/05 07:56:33;;;;;;;5.95;3.08;;;;;;;;;;5063500;28;20040;-75
2023/06/05 07:58:59;;;;;;;8.60;6.07;;;;;;;;;;5062822;28;20043;-74
2023/06/05 08:01:25;;;;;;;9.30;4.95;;;;;;;;;;5060368;28;20040;-73
2023/06/05 08:03:51;;;;;;;7.57;3.78;;;;;;;;;;5049318;28;20471;-75
2023/06/05 08:06:17;;;;;;;7.18;3.88;;;;;;;;;;5069263;28;20066;-74
2023/06/05 08:08:43;;;;;;;10.23;4.57;;;;;;;;;;5069781;28;20029;-73
2023/06/05 08:11:10;;;;;;;8.63;4.10;;;;;;;;;;5055270;28;20043;-74
2023/06/05 08:13:38;;;;;;;12.43;6.80;;;;;;;;;;5068862;28;20055;-75
2023/06/05 08:16:04;;;;;;;7.97;4.13;;;;;;;;;;5069221;28;20501;-75
2023/06/05 08:18:30;;;;;;;11.60;4.70;;;;;;;;;;5069274;28;20076;-74
2023/06/05 08:20:56;;;;;;;13.05;6.45;;;;;;;;;;5055274;28;20128;-75
2023/06/05 08:23:22;;;;;;;9.40;4.43;;;;;;;;;;5069552;28;20037;-75
2023/06/05 08:25:49;;;;;;;7.03;3.53;;;;;;;;;;5055748;28;20024;-74
2023/06/05 08:28:15;;;;;;;6.53;3.65;;;;;;;;;;5069314;28;20070;-76
2023/06/05 08:30:46;;;;;;;12.10;5.15;;;;;;;;;;5063218;28;20553;-74
2023/06/05 08:33:12;;;;;;;5.75;3.47;;;;;;;;;;5049767;28;20041;-75
2023/06/05 08:35:42;;;;;;;10.63;5.22;;;;;;;;;;5047351;28;20361;-75
2023/06/05 08:38:08;;;;;;;11.18;6.03;;;;;;;;;;5048342;28;20919;-75
2023/06/05 08:40:36;;;;;;;6.70;3.30;;;;;;;;;;5048128;28;20029;-75
2023/06/05 08:43:02;;;;;;;9.48;5.43;;;;;;;;;;5048291;28;20070;-74
2023/06/05 08:45:28;;;;;;;6.15;3.05;;;;;;;;;;5056042;28;20025;-75
2023/06/05 08:47:55;;;;;;;11.18;6.05;;;;;;;;;;5070014;28;20085;-73
2023/06/05 08:50:21;;;;;;;7.32;2.90;;;;;;;;;;5052492;28;20025;-73
2023/06/05 08:52:49;;;;;;;8.80;2.97;;;;;;;;;;5052126;28;20044;-77
2023/06/05 08:55:15;;;;;;;8.43;3.53;;;;;;;;;;5052931;28;20024;-76
2023/06/05 08:57:42;;;;;;;6.85;3.95;;;;;;;;;;5052521;28;20475;-75
2023/06/05 09:00:12;;;;;;;6.43;3.30;;;;;;;;;;5054491;28;20053;-75
2023/06/05 09:02:39;;;;;;;7.53;3.33;;;;;;;;;;5071545;28;20562;-75
2023/06/05 09:05:05;;;;;;;9.43;3.85;;;;;;;;;;5072040;28;20044;-77
2023/06/05 09:07:31;;;;;;;10.35;5.13;;;;;;;;;;5058039;28;20079;-75
2023/06/05 09:09:57;;;;;;;10.23;4.85;;;;;;;;;;5062462;28;20408;-76
2023/06/05 09:12:25;;;;;;;6.13;2.95;;;;;;;;;;5051901;28;20391;-76
2023/06/05 09:14:51;;;;;;;8.63;4.13;;;;;;;;;;5051635;28;20052;-77
2023/06/05 09:17:17;;;;;;;4.57;2.10;;;;;;;;;;5051601;28;20032;-75
2023/06/05 09:19:46;;;;;;;9.13;3.72;;;;;;;;;;5051968;28;20049;-77
2023/06/05 09:22:13;;;;;;;7.63;3.20;;;;;;;;;;5053458;28;20028;-79
2023/06/05 09:24:40;;;;;;;8.73;4.00;;;;;;;;;;5071393;28;20021;-75
2023/06/05 09:27:10;;;;;;;8.35;3.70;;;;;;;;;;5071314;28;20051;-77
2023/06/05 09:29:40;;;;;;;8.60;3.78;;;;;;;;;;5071965;28;20056;-76
2023/06/05 09:32:06;;;;;;;;;;;;;;;;;;5071256;28;20036;-76
2023/06/05 09:34:32;;;;;;;6.75;2.50;;;;;;;;;;5066868;28;19912;-76
2023/06/05 09:37:02;;;;;;;4.93;2.75;;;;;;;;;;5060985;28;20028;-76
2023/06/05 09:39:30;;;;;;;7.50;4.38;;;;;;;;;;5065126;28;20107;-76
2023/06/05 09:41:56;;;;;;;5.72;3.25;;;;;;;;;;5066201;28;20056;-78
2023/06/05 09:44:23;;;;;;;6.60;3.33;;;;;;;;;;5053311;28;20120;-75
2023/06/05 09:46:53;;;;;;;5.72;3.22;;;;;;;;;;5070942;28;20028;-78
2023/06/05 09:49:20;;;;;;;8.30;2.92;;;;;;;;;;5067798;28;20376;-78
2023/06/05 09:51:47;;;;;;;7.95;3.50;;;;;;;;;;5063417;28;20045;-76
2023/06/05 09:54:14;;;;;;;13.30;5.75;;;;;;;;;;5051039;28;20021;-76
2023/06/05 09:56:44;;;;;;;7.78;3.30;;;;;;;;;;5059269;28;20016;-77
2023/06/05 09:59:13;;;;;;;7.33;4.63;;;;;;;;;;5051435;28;20068;-76
2023/06/05 10:01:40;;;;;;;8.37;3.77;;;;;;;;;;5065850;28;20039;-76
2023/06/05 10:04:09;;;;;;;7.90;3.20;;;;;;;;;;5070940;28;20324;-77
2023/06/05 10:06:36;;;;;;;5.60;3.00;;;;;;;;;;5071158;28;20362;-77
2023/06/05 10:09:03;;;;;;;5.55;3.55;;;;;;;;;;5070637;28;20036;-76
2023/06/05 10:11:29;;;;;;;5.70;3.35;;;;;;;;;;5050932;28;20606;-77
2023/06/05 10:14:00;;;;;;;6.75;3.45;;;;;;;;;;5050720;28;20028;-76
2023/06/05 10:16:30;;;;;;;7.07;2.53;;;;;;;;;;5070986;28;20016;-76
2023/06/05 10:18:56;;;;;;;;;;;;;;;;;;5067073;28;20031;-78
2023/06/05 10:21:23;;;;;;;6.03;3.42;;;;;;;;;;5060769;28;19905;-78
2023/06/05 10:23:53;;;;;;;12.05;5.00;;;;;;;;;;5068792;28;20291;-76
2023/06/05 10:26:19;;;;;;;;;;;;;;;;;;5071008;28;20526;-78
2023/06/05 10:29:05;;;;;;;5.20;2.40;;;;;;;;;;5070005;28;19905;-76
2023/06/05 10:31:40;;;;;;;4.93;2.45;;;;;;;;;;5069289;28;20024;-77
2023/06/05 10:34:14;;;;;;;5.13;2.65;;;;;;;;;;5069882;28;20035;-77
2023/06/05 10:36:57;;;;;;;7.57;3.38;;;;;;;;;;5069972;28;20032;-80
2023/06/05 10:39:25;;;;;;;5.13;2.25;;;;;;;;;;5070376;28;20020;-78
2023/06/05 10:41:52;;;;;;;9.88;4.57;;;;;;;;;;5069823;28;20039;-76
2023/06/05 10:44:18;;;;;;;7.72;4.47;;;;;;;;;;5069859;28;20020;-76
2023/06/05 10:46:44;;;;;;;6.03;2.85;;;;;;;;;;5070213;28;20028;-77
2023/06/05 10:49:12;;;;;;;5.45;2.65;;;;;;;;;;5064887;28;20047;-80
2023/06/05 10:51:39;;;;;;;6.75;3.53;;;;;;;;;;5062527;28;20440;-77
2023/06/05 10:54:06;;;;;;;5.63;3.42;;;;;;;;;;5058277;28;20041;-78
2023/06/05 10:56:56;;;;;;;7.47;2.88;;;;;;;;;;5047370;28;20037;-77
2023/06/05 10:59:23;;;;;;;3.72;2.10;;;;;;;;;;5049894;28;20067;-77
2023/06/05 11:02:16;;;;;;;5.68;2.40;;;;;;;;;;5041087;28;20036;-77
2023/06/05 11:04:48;;;;;;;6.47;2.28;;;;;;;;;;5062643;28;20032;-77
2023/06/05 11:07:16;;;;;;;6.53;3.95;;;;;;;;;;5046819;28;20024;-78
2023/06/05 11:10:01;;;;;;;6.50;3.08;;;;;;;;;;5065754;28;20093;-77
2023/06/05 11:12:27;;;;;;;8.05;4.60;;;;;;;;;;5069397;28;20044;-77
2023/06/05 11:14:53;;;;;;;9.50;5.35;;;;;;;;;;5057572;28;20056;-75
2023/06/05 11:17:29;;;;;;;7.60;3.80;;;;;;;;;;5049588;28;20036;-77
2023/06/05 11:19:55;;;;;;;7.85;4.43;;;;;;;;;;5051142;28;20035;-75
2023/06/05 11:22:22;;;;;;;4.80;2.20;;;;;;;;;;5050643;28;20429;-77
2023/06/05 11:25:08;;;;;;;5.97;2.20;;;;;;;;;;5048449;28;20021;-78
2023/06/05 11:27:41;;;;;;;6.63;2.92;;;;;;;;;;5039905;28;20406;-81
2023/06/05 11:30:11;;;;;;;6.03;2.53;;;;;;;;;;5068832;28;20031;-77
2023/06/05 11:32:37;;;;;;;5.03;3.00;;;;;;;;;;5038495;28;20383;-80
2023/06/05 11:35:04;;;;;;;5.05;2.25;;;;;;;;;;5061046;28;20029;-77
2023/06/05 11:37:34;;;;;;;3.65;1.88;;;;;;;;;;5049615;28;20023;-78
2023/06/05 11:40:00;;;;;;;4.95;2.20;;;;;;;;;;5067177;28;20020;-80
2023/06/05 11:42:26;;;;;;;6.18;2.90;;;;;;;;;;5067749;28;20021;-78
2023/06/05 11:44:53;;;;;;;5.22;2.42;;;;;;;;;;5052352;28;20042;-79
2023/06/05 11:49:47;;;;;;;5.88;3.38;;;;;;;;;;4749927;22;20049;-76
2023/06/05 11:52:18;;;;;;;8.80;3.22;;;;;;;;;;5047148;28;20036;-77
2023/06/05 11:54:53;;;;;;;7.53;3.35;;;;;;;;;;5049400;28;20490;-76
2023/06/05 11:57:26;;;;;;;6.00;3.13;;;;;;;;;;5048591;28;20032;-76
2023/06/05 11:59:52;;;;;;;4.93;2.08;;;;;;;;;;5048981;28;20433;-77
2023/06/05 12:02:24;;;;;;;5.50;2.22;;;;;;;;;;5049730;28;20055;-74
2023/06/05 12:04:52;;;;;;;9.27;3.30;;;;;;;;;;5064036;28;20039;-74
2023/06/05 12:07:28;;;;;;;7.35;3.97;;;;;;;;;;5048896;28;20029;-73
2023/06/05 12:09:54;;;;;;;4.22;1.98;;;;;;;;;;5059982;28;20611;-73
2023/06/05 12:12:20;;;;;;;8.98;2.28;;;;;;;;;;5066881;28;20036;-72
2023/06/05 12:14:47;;;;;;;4.85;2.17;;;;;;;;;;5049425;28;20032;-73
2023/06/05 12:17:13;;;;;;;4.28;1.90;;;;;;;;;;5049196;28;20029;-73
2023/06/05 12:19:40;;;;;;;3.25;1.90;;;;;;;;;;5049560;28;20032;-73
2023/06/05 12:22:07;;;;;;;7.25;3.25;;;;;;;;;;5065654;28;20017;-72
2023/06/05 12:24:33;;;;;;;4.90;2.63;;;;;;;;;;5049386;28;20040;-72
2023/06/05 12:27:00;;;;;;;4.75;2.58;;;;;;;;;;5049210;28;20485;-73
2023/06/05 12:29:31;;;;;;;4.07;2.00;;;;;;;;;;5049679;28;20032;-73
2023/06/05 12:31:57;;;;;;;8.90;4.05;;;;;;;;;;5066991;28;20037;-72
2023/06/05 12:34:45;;;;;;;6.07;2.92;;;;;;;;;;5049633;28;20029;-73
2023/06/05 12:37:12;;;;;;;6.35;2.90;;;;;;;;;;5049905;28;20025;-73
2023/06/05 12:39:38;;;;;;;10.30;4.90;;;;;;;;;;5049345;28;20063;-73
2023/06/05 12:42:05;;;;;;;6.68;1.85;;;;;;;;;;5049667;28;20389;-72
2023/06/05 12:44:31;;;;;;;5.43;2.10;;;;;;;;;;5067819;28;20028;-72
2023/06/05 12:46:57;;;;;;;3.78;2.10;;;;;;;;;;5066773;28;20822;-73
2023/06/05 12:49:23;;;;;;;7.80;2.83;;;;;;;;;;5031525;28;20048;-72
2023/06/05 12:51:49;;;;;;;3.85;1.95;;;;;;;;;;5029749;28;20075;-72
2023/06/05 12:54:18;;;;;;;5.85;2.35;;;;;;;;;;5046883;28;20021;-72
2023/06/05 12:56:45;;;;;;;6.10;2.97;;;;;;;;;;5029807;28;20437;-73
2023/06/05 12:59:11;;;;;;;5.53;2.10;;;;;;;;;;5029301;28;20119;-73
2023/06/05 13:01:39;;;;;;;5.35;2.03;;;;;;;;;;5047446;28;20025;-73
2023/06/05 13:04:05;;;;;;;4.93;2.75;;;;;;;;;;5030059;28;20045;-73
2023/06/05 13:06:33;;;;;;;5.93;2.92;;;;;;;;;;5047411;28;20021;-72
2023/06/05 13:09:00;;;;;;;6.28;2.67;;;;;;;;;;5056957;28;20398;-73
2023/06/05 13:11:26;;;;;;;9.50;3.25;;;;;;;;;;5045882;28;20033;-73
2023/06/05 13:13:52;;;;;;;5.28;1.67;;;;;;;;;;5042440;28;20036;-72
2023/06/05 13:16:18;;;;;;;6.47;3.20;;;;;;;;;;5046011;28;20025;-73
2023/06/05 13:18:44;;;;;;;4.95;2.10;;;;;;;;;;5046764;28;20028;-73
2023/06/05 13:21:10;;;;;;;4.65;2.00;;;;;;;;;;5045943;28;20071;-73
2023/06/05 13:23:36;;;;;;;4.85;2.40;;;;;;;;;;5046711;28;20033;-71
2023/06/05 13:26:02;;;;;;;4.20;1.58;;;;;;;;;;5047038;28;20744;-72
2023/06/05 13:28:29;;;;;;;6.82;2.83;;;;;;;;;;5047136;28;20028;-72
2023/06/05 13:30:56;;;;;;;3.42;1.52;;;;;;;;;;5042066;28;20025;-72
2023/06/05 13:33:24;;;;;;;4.82;1.90;;;;;;;;;;5048999;28;20095;-72
2023/06/05 13:35:50;;;;;;;3.40;1.60;;;;;;;;;;5048555;28;20032;-72
2023/06/05 13:38:18;;;;;;;2.63;1.50;;;;;;;;;;5049167;28;20058;-72
2023/06/05 13:40:48;;;;;;;4.18;1.83;;;;;;;;;;5044453;28;20113;-73
2023/06/05 13:43:14;;;;;;;4.22;1.75;;;;;;;;;;5032434;28;20025;-72
2023/06/05 13:45:40;;;;;;;3.42;1.65;;;;;;;;;;5049239;28;20029;-72
2023/06/05 13:48:06;;;;;;;4.60;1.58;;;;;;;;;;5048407;28;20040;-73
2023/06/05 13:50:32;;;;;;;3.42;1.85;;;;;;;;;;5049096;28;20421;-73
2023/06/05 13:52:58;;;;;;;6.68;3.10;;;;;;;;;;5050286;28;20041;-73
2023/06/05 13:55:24;;;;;;;3.80;1.50;;;;;;;;;;5049600;28;20025;-73
2023/06/05 13:57:50;;;;;;;5.68;1.92;;;;;;;;;;5049974;28;20029;-73
2023/06/05 14:00:17;;;;;;;5.72;2.83;;;;;;;;;;5049224;28;20086;-73
2023/06/05 14:02:46;;;;;;;4.30;2.00;;;;;;;;;;5049079;28;20032;-72
2023/06/05 14:05:12;;;;;;;7.35;3.20;;;;;;;;;;5049183;28;20029;-73
2023/06/05 14:07:38;;;;;;;3.78;1.80;;;;;;;;;;5040209;28;20372;-72
2023/06/05 14:10:05;;;;;;;4.38;1.88;;;;;;;;;;5031328;28;20044;-72
2023/06/05 14:12:31;;;;;;;7.47;2.20;;;;;;;;;;5028400;28;20033;-73
2023/06/05 14:14:57;;;;;;;5.80;2.75;;;;;;;;;;5021619;28;20017;-72
2023/06/05 14:17:23;;;;;;;3.35;1.80;;;;;;;;;;5041887;28;20059;-73
2023/06/05 14:19:50;;;;;;;5.10;2.72;;;;;;;;;;5041441;28;20033;-72
2023/06/05 14:22:16;;;;;;;5.80;2.30;;;;;;;;;;5039990;28;20013;-72
2023/06/05 14:24:42;;;;;;;4.00;1.80;;;;;;;;;;5040203;28;20581;-72
2023/06/05 14:27:09;;;;;;;5.20;1.70;;;;;;;;;;5042954;28;20025;-73
2023/06/05 14:29:35;;;;;;;3.20;1.45;;;;;;;;;;5043565;28;20420;-72
2023/06/05 14:32:01;;;;;;;3.97;1.80;;;;;;;;;;5038830;28;20036;-72
2023/06/05 14:34:28;;;;;;;5.30;2.42;;;;;;;;;;5031582;28;20036;-73
2023/06/05 14:36:54;;;;;;;5.07;2.05;;;;;;;;;;5028331;28;20017;-72
2023/06/05 14:39:20;;;;;;;4.68;1.80;;;;;;;;;;5042093;28;20028;-72
2023/06/05 14:41:46;;;;;;;2.63;1.30;;;;;;;;;;5039504;28;20489;-73